createdAt,value
2023-12-09T00:04:04.005Z,100028.84
2023-12-09T00:09:05.944Z,100039.09
2023-12-09T00:14:07.671Z,100038.34
2023-12-09T00:19:10.707Z,100043.44
2023-12-09T00:24:12.643Z,100037.19
2023-12-09T00:29:14.276Z,100037.41
2023-12-09T00:34:16.167Z,100036.88
2023-12-09T00:39:17.852Z,100031.91
2023-12-09T00:44:22.134Z,100031.44
2023-12-09T00:49:23.844Z,100033.38
2023-12-09T00:54:26.635Z,100036.75
2023-12-09T00:59:28.289Z,100035.06
2023-12-09T01:04:29.953Z,100044.81
2023-12-09T01:09:31.694Z,100035.28
2023-12-09T01:14:33.356Z,100038.00
2023-12-09T01:19:35.049Z,100039.91
2023-12-09T01:24:36.708Z,100037.91
2023-12-09T01:29:38.335Z,100035.59
2023-12-09T01:34:41.821Z,100018.00
2023-12-09T01:39:43.585Z,100036.91
2023-12-09T01:44:45.842Z,100041.66
2023-12-09T01:49:47.978Z,100041.91
2023-12-09T01:54:49.722Z,100043.56
2023-12-09T01:59:51.423Z,100026.75
2023-12-09T02:04:54.136Z,100032.78
2023-12-09T02:09:55.857Z,100030.84
2023-12-09T02:15:03.636Z,100035.63
2023-12-09T02:20:06.948Z,100036.81
2023-12-09T02:25:08.939Z,100035.28
2023-12-09T02:30:22.378Z,100040.59
2023-12-09T02:35:25.484Z,100044.75
2023-12-09T02:40:28.191Z,100045.25
2023-12-09T02:45:29.837Z,100043.38
2023-12-09T02:50:31.788Z,100048.66
2023-12-09T02:55:33.371Z,100048.84
2023-12-09T03:00:35.437Z,100045.25
2023-12-09T03:05:37.171Z,100045.50
2023-12-09T03:10:38.844Z,100044.75
2023-12-09T03:15:40.496Z,100052.69
2023-12-09T03:20:42.168Z,100052.50
2023-12-09T03:25:43.790Z,100049.09
2023-12-09T03:30:45.425Z,100059.69
2023-12-09T03:35:47.050Z,100052.16
2023-12-09T03:40:48.691Z,100057.03
2023-12-09T03:45:50.361Z,100047.41
2023-12-09T03:50:52.104Z,100060.09
2023-12-09T03:55:53.765Z,100062.31
2023-12-09T04:00:55.373Z,100067.38
2023-12-09T04:05:57.109Z,100071.13
2023-12-09T04:10:58.765Z,100063.84
2023-12-09T04:16:01.237Z,100063.84
2023-12-09T04:21:03.080Z,100077.69
2023-12-09T04:26:05.879Z,100070.25
2023-12-09T04:31:07.521Z,100065.72
2023-12-09T04:36:09.483Z,100070.78
2023-12-09T04:41:11.129Z,100080.84
2023-12-09T04:46:12.751Z,100081.47
2023-12-09T04:51:14.403Z,100072.28
2023-12-09T04:56:16.208Z,100086.75
2023-12-09T05:01:18.380Z,100077.13
2023-12-09T05:06:21.376Z,100084.44
2023-12-09T05:11:23.080Z,100077.69
2023-12-09T05:16:24.695Z,100087.00
2023-12-09T05:21:35.228Z,100074.81
2023-12-09T05:26:38.093Z,100074.38
2023-12-09T05:31:39.710Z,100072.81
2023-12-09T05:36:41.628Z,100071.72
2023-12-09T05:41:43.422Z,100074.59
2023-12-09T05:46:45.117Z,100072.91
2023-12-09T05:51:46.897Z,100079.56
2023-12-09T05:56:50.033Z,100077.78
2023-12-09T06:01:51.687Z,100076.78
2023-12-09T06:06:53.325Z,100063.28
2023-12-09T06:11:54.934Z,100067.50
2023-12-09T06:16:56.636Z,100068.13
2023-12-09T06:21:58.321Z,100059.25
2023-12-09T06:27:00.041Z,100053.31
2023-12-09T06:32:02.008Z,100066.44
2023-12-09T06:37:03.834Z,100059.69
2023-12-09T06:42:06.826Z,100053.88
2023-12-09T06:47:11.058Z,100050.72
2023-12-09T06:52:12.740Z,100055.50
2023-12-09T06:57:14.366Z,100046.38
2023-12-09T07:02:16.046Z,100037.03
2023-12-09T07:07:21.941Z,100035.97
2023-12-09T07:12:24.609Z,100036.97
2023-12-09T07:17:26.877Z,100054.16
2023-12-09T07:22:28.874Z,100040.75
2023-12-09T07:27:30.679Z,100050.47
2023-12-09T07:32:32.888Z,100049.09
2023-12-09T07:37:34.797Z,100071.63
2023-12-09T07:42:36.469Z,100077.53
2023-12-09T07:47:38.194Z,100073.84
2023-12-09T07:52:40.523Z,100061.75
2023-12-09T07:57:42.172Z,100058.56
2023-12-09T08:02:43.996Z,100051.81
2023-12-09T08:07:45.642Z,100051.75
2023-12-09T08:12:47.338Z,100045.25
2023-12-09T08:17:49.036Z,100052.91
2023-12-09T08:22:50.699Z,100043.53
2023-12-09T08:27:52.355Z,100040.88
2023-12-09T08:32:54.862Z,100035.56
2023-12-09T08:37:56.516Z,100042.56
2023-12-09T08:42:58.647Z,100044.03
2023-12-09T08:48:00.480Z,100045.13
2023-12-09T08:53:03.650Z,100039.84
2023-12-09T08:58:05.256Z,100045.44
2023-12-09T09:03:07.994Z,100028.06
2023-12-09T09:08:09.821Z,100034.19
2023-12-09T09:13:11.509Z,100034.19
2023-12-09T09:18:13.254Z,100020.25
2023-12-09T09:23:15.034Z,100027.38
2023-12-09T09:28:16.714Z,100012.69
2023-12-09T09:33:19.450Z,100011.59
2023-12-09T09:38:21.233Z,100003.66
2023-12-09T09:43:26.160Z,99983.19
2023-12-09T09:48:29.980Z,99995.84
2023-12-09T09:53:40.736Z,99984.03
2023-12-09T09:58:43.364Z,99979.97
2023-12-09T10:03:45.060Z,99960.56
2023-12-09T10:08:50.167Z,99960.44
2023-12-09T10:13:52.546Z,99944.91
2023-12-09T10:18:55.072Z,99947.34
2023-12-09T10:23:57.151Z,99937.72
2023-12-09T10:28:58.881Z,99939.88
2023-12-09T10:34:00.568Z,99925.41
2023-12-09T10:39:06.340Z,99929.13
2023-12-09T10:44:08.299Z,99924.69
2023-12-09T10:49:10.116Z,99914.44
2023-12-09T10:54:11.863Z,99906.34
2023-12-09T10:59:14.499Z,99905.00
2023-12-09T11:04:16.550Z,99897.97
2023-12-09T11:09:20.168Z,99878.81
2023-12-09T11:14:26.270Z,99861.28
2023-12-09T11:19:28.174Z,99858.91
2023-12-09T11:24:31.634Z,99863.09
2023-12-09T11:29:34.670Z,99859.59
2023-12-09T11:34:36.764Z,99858.59
2023-12-09T11:39:39.693Z,99852.91
2023-12-09T11:44:42.214Z,99838.91
2023-12-09T11:49:44.306Z,99829.72
2023-12-09T11:54:46.144Z,99828.97
2023-12-09T11:59:47.801Z,99817.38
2023-12-09T12:04:49.788Z,99807.28
2023-12-09T12:09:51.780Z,99802.38
2023-12-09T12:14:53.783Z,99796.06
2023-12-09T12:19:56.679Z,99790.66
2023-12-09T12:24:58.403Z,99783.91
2023-12-09T12:30:00.307Z,99779.13
2023-12-09T12:35:04.435Z,99760.44
2023-12-09T12:40:06.585Z,99746.59
2023-12-09T12:45:24.820Z,99745.84
2023-12-09T12:50:27.901Z,99723.47
2023-12-09T12:55:29.861Z,99737.19
2023-12-09T13:00:31.728Z,99726.03
2023-12-09T13:05:33.650Z,99713.50
2023-12-09T13:10:35.315Z,99712.28
2023-12-09T13:15:37.028Z,99709.09
2023-12-09T13:20:39.177Z,99696.28
2023-12-09T13:25:41.830Z,99696.31
2023-12-09T13:30:43.597Z,99682.88
2023-12-09T13:35:45.312Z,99665.88
2023-12-09T13:40:47.422Z,99653.75
2023-12-09T13:45:49.365Z,99649.22
2023-12-09T13:50:51.256Z,99639.44
2023-12-09T13:55:52.925Z,99646.97
2023-12-09T14:00:54.949Z,99642.63
2023-12-09T14:05:56.682Z,99658.88
2023-12-09T14:10:58.781Z,99642.03
2023-12-09T14:16:00.558Z,99634.03
2023-12-09T14:21:02.328Z,99625.75
2023-12-09T14:26:04.697Z,99614.72
2023-12-09T14:31:07.241Z,99620.56
2023-12-09T14:36:10.086Z,99617.56
2023-12-09T14:41:11.926Z,99595.53
2023-12-09T14:46:14.050Z,99594.69
2023-12-09T14:51:15.886Z,99580.13
2023-12-09T14:56:17.652Z,99568.50
2023-12-09T15:01:19.904Z,99553.00
2023-12-09T15:06:21.703Z,99544.88
2023-12-09T15:11:25.574Z,99534.31
2023-12-09T15:16:27.338Z,99538.50
2023-12-09T15:21:29.194Z,99539.50
2023-12-09T15:26:31.003Z,99546.13
2023-12-09T15:31:32.735Z,99536.28
2023-12-09T15:36:34.455Z,99526.53
2023-12-09T15:41:36.182Z,99506.06
2023-12-09T15:46:38.089Z,99486.63
2023-12-09T15:51:39.942Z,99471.19
2023-12-09T15:56:41.743Z,99457.09
2023-12-09T16:01:43.455Z,99448.78
2023-12-09T16:06:45.274Z,99445.28
2023-12-09T16:11:47.038Z,99427.59
2023-12-09T16:16:48.911Z,99416.94
2023-12-09T16:21:50.715Z,99400.88
2023-12-09T16:26:52.467Z,99390.72
2023-12-09T16:31:54.172Z,99367.69
2023-12-09T16:36:55.859Z,99364.06
2023-12-09T16:41:57.574Z,99350.38
2023-12-09T16:46:59.353Z,99334.50
2023-12-09T16:52:00.965Z,99338.56
2023-12-09T16:57:02.841Z,99340.69
2023-12-09T17:02:04.581Z,99355.09
2023-12-09T17:07:06.251Z,99339.06
2023-12-09T17:12:08.564Z,99332.03
2023-12-09T17:17:10.265Z,99314.19
2023-12-09T17:22:11.921Z,99312.16
2023-12-09T17:27:13.724Z,99303.41
2023-12-09T17:32:15.418Z,99277.06
2023-12-09T17:37:17.104Z,99271.75
2023-12-09T17:42:18.963Z,99266.88
2023-12-09T17:47:20.669Z,99257.84
2023-12-09T17:52:23.806Z,99244.72
2023-12-09T17:57:25.481Z,99229.22
2023-12-09T18:02:27.444Z,99201.88
2023-12-09T18:07:29.630Z,99174.53
2023-12-09T18:12:31.645Z,99171.22
2023-12-09T18:17:34.108Z,99162.41
2023-12-09T18:22:35.848Z,99150.53
2023-12-09T18:27:38.111Z,99132.97
2023-12-09T18:32:40.128Z,99104.38
2023-12-09T18:37:42.104Z,99056.22
2023-12-09T18:42:43.862Z,99032.94
2023-12-09T18:47:45.720Z,99019.13
2023-12-09T18:52:47.398Z,99013.69
2023-12-09T18:57:49.173Z,99003.63
2023-12-09T19:02:50.896Z,98981.84
2023-12-09T19:07:52.633Z,98971.09
2023-12-09T19:12:54.404Z,98958.75
2023-12-09T19:17:56.193Z,98948.31
2023-12-09T19:23:00.057Z,98942.41
2023-12-09T19:28:04.476Z,98930.84
2023-12-09T19:33:06.425Z,98916.59
2023-12-09T19:38:08.134Z,98900.16
2023-12-09T19:43:09.792Z,98888.41
2023-12-09T19:48:11.594Z,98874.47
2023-12-09T19:53:13.331Z,98861.34
2023-12-09T19:58:15.033Z,98852.13
2023-12-09T20:03:16.805Z,98845.38
2023-12-09T20:08:18.588Z,98847.25
2023-12-09T20:13:20.680Z,98864.00
2023-12-09T20:18:22.469Z,98852.03
2023-12-09T20:23:24.183Z,98837.50
2023-12-09T20:28:26.501Z,98842.41
2023-12-09T20:33:28.887Z,98839.00
2023-12-09T20:38:33.780Z,98828.94
2023-12-09T20:43:36.568Z,98834.00
2023-12-09T20:48:38.305Z,98830.53
2023-12-09T20:53:40.064Z,98818.44
2023-12-09T20:58:41.719Z,98801.66
2023-12-09T21:03:44.108Z,98827.94
2023-12-09T21:08:45.818Z,98855.28
2023-12-09T21:13:47.657Z,98842.56
2023-12-09T21:18:49.501Z,98834.31
2023-12-09T21:23:51.276Z,98812.19
2023-12-09T21:28:53.078Z,98794.16
2023-12-09T21:33:54.856Z,98783.56
2023-12-09T21:38:56.724Z,98766.97
2023-12-09T21:43:58.503Z,98754.16
2023-12-09T21:49:00.770Z,98768.63
2023-12-09T21:54:02.593Z,98780.34
2023-12-09T21:59:04.315Z,98775.78
2023-12-09T22:04:06.664Z,98751.28
2023-12-09T22:09:08.396Z,98754.78
2023-12-09T22:14:10.145Z,98750.88
2023-12-09T22:19:11.903Z,98734.50
2023-12-09T22:24:13.688Z,98722.41
2023-12-09T22:29:15.399Z,98715.50
2023-12-09T22:34:17.123Z,98702.78
2023-12-09T22:39:19.056Z,98703.34
2023-12-09T22:44:20.932Z,98708.06
2023-12-09T22:49:22.710Z,98733.13
2023-12-09T22:54:24.496Z,98734.28
2023-12-09T22:59:26.169Z,98725.94
2023-12-09T23:04:27.904Z,98729.69
2023-12-09T23:09:30.333Z,98717.88
2023-12-09T23:14:32.085Z,98685.56
2023-12-09T23:19:33.797Z,98683.66
2023-12-09T23:24:35.501Z,98683.97
2023-12-09T23:29:37.158Z,98682.28
2023-12-09T23:34:38.913Z,98670.38
2023-12-09T23:39:40.681Z,98672.97
2023-12-09T23:44:42.370Z,98661.47
2023-12-09T23:49:44.063Z,98649.47
2023-12-09T23:54:45.760Z,98654.44
2023-12-09T23:59:47.664Z,98648.63
